Spiritwood Lake, North Dakota
Current Conditions -  °F | °C
As of 1:56 PM on Monday 26 Jan 2015 (Local Time) from KJMS Reporting Station
Clear Clear  
Wind Chill: 32°   Ceiling: Unl
Heat Index: 41°   Visibility: 10mi
Dew Point: 33°   Wind: 18mph
Humidity: 73%   Direction: 330°NNW
Pressure: 29.88"   Gusts: NA
Location:  46.8494°N, 98.7424°W
Report Text: KJMS 261956Z AUTO 33016KT 10SM CLR 05/01 A2988 RMK AO2 PK WND 32027/1900 SLP133 T00500006
Loading
Personal Weather Stations






























Interactive Weather Map New forecast layout! Learn more

10-Day Weather Forecast

Advertisements
Track Severe Weather on mobile